createdAt,value
2023-02-26T00:01:34.198Z,11.95
2023-02-26T00:06:33.563Z,11.82
2023-02-26T00:09:01.386Z,10.20
2023-02-26T00:11:31.683Z,10.98
2023-02-26T00:13:59.856Z,11.00
2023-02-26T00:16:30.171Z,11.98
2023-02-26T00:19:00.158Z,8.13
2023-02-26T00:21:28.685Z,12.45
2023-02-26T00:23:56.877Z,10.98
2023-02-26T00:26:27.584Z,11.27
2023-02-26T00:28:57.989Z,9.38
2023-02-26T00:31:26.402Z,8.90
2023-02-26T00:33:56.062Z,12.10
2023-02-26T00:36:26.547Z,8.70
2023-02-26T00:39:08.696Z,12.45
2023-02-26T00:41:38.802Z,13.93
2023-02-26T00:44:09.155Z,8.85
2023-02-26T00:46:44.803Z,17.52
2023-02-26T00:49:24.340Z,14.95
2023-02-26T00:51:56.750Z,11.13
2023-02-26T00:54:26.864Z,14.70
2023-02-26T00:56:55.879Z,11.45
2023-02-26T00:59:25.277Z,10.32
2023-02-26T01:01:54.392Z,9.13
2023-02-26T01:04:24.988Z,10.55
2023-02-26T01:06:57.171Z,12.23
2023-02-26T01:09:28.041Z,12.60
2023-02-26T01:12:03.399Z,11.15
2023-02-26T01:14:33.553Z,13.80
2023-02-26T01:17:05.813Z,14.98
2023-02-26T01:19:42.543Z,8.13
2023-02-26T01:22:17.481Z,17.40
2023-02-26T01:24:47.306Z,11.35
2023-02-26T01:27:15.290Z,9.38
2023-02-26T01:29:45.721Z,12.55
2023-02-26T01:32:21.038Z,7.50
2023-02-26T01:34:56.661Z,12.35
2023-02-26T01:37:30.246Z,13.80
2023-02-26T01:40:38.478Z,13.93
2023-02-26T01:43:11.546Z,15.00
2023-02-26T01:45:56.740Z,14.88
2023-02-26T01:48:37.461Z,12.85
2023-02-26T01:51:06.406Z,13.02
2023-02-26T01:53:35.292Z,10.32
2023-02-26T01:56:07.999Z,11.10
2023-02-26T01:58:37.664Z,13.98
2023-02-26T02:03:40.145Z,15.55
2023-02-26T02:06:10.530Z,12.30
2023-02-26T02:08:38.194Z,12.57
2023-02-26T02:11:10.177Z,11.82
2023-02-26T02:13:48.029Z,10.82
2023-02-26T02:16:29.523Z,13.32
2023-02-26T02:19:07.092Z,9.50
2023-02-26T02:21:51.632Z,14.93
2023-02-26T02:24:29.654Z,9.80
2023-02-26T02:27:04.404Z,11.52
2023-02-26T02:30:10.268Z,10.90
2023-02-26T02:32:45.724Z,8.07
2023-02-26T02:35:18.992Z,8.18
2023-02-26T02:37:52.680Z,12.57
2023-02-26T02:40:24.329Z,11.15
2023-02-26T02:43:00.203Z,14.35
2023-02-26T02:45:32.398Z,12.20
2023-02-26T02:48:07.381Z,12.45
2023-02-26T02:50:38.223Z,11.52
2023-02-26T02:53:13.504Z,8.07
2023-02-26T02:55:46.856Z,10.05
2023-02-26T02:58:18.964Z,9.05
2023-02-26T03:00:50.844Z,9.25
2023-02-26T03:03:26.388Z,8.68
2023-02-26T03:05:54.414Z,11.18
2023-02-26T03:08:25.033Z,10.75
2023-02-26T03:10:53.313Z,11.82
2023-02-26T03:13:23.503Z,11.60
2023-02-26T03:16:01.597Z,9.27
2023-02-26T03:18:42.677Z,6.47
2023-02-26T03:21:17.927Z,13.45
2023-02-26T03:23:55.397Z,11.68
2023-02-26T03:26:30.593Z,9.38
2023-02-26T03:29:04.429Z,10.52
2023-02-26T03:31:38.255Z,15.48
2023-02-26T03:34:12.651Z,8.90
2023-02-26T03:36:44.777Z,12.43
2023-02-26T03:39:16.125Z,11.98
2023-02-26T03:41:48.477Z,7.63
2023-02-26T03:44:24.349Z,12.73
2023-02-26T03:46:55.483Z,10.35
2023-02-26T03:49:28.491Z,7.00
2023-02-26T03:51:59.461Z,8.25
2023-02-26T03:54:31.465Z,11.75
2023-02-26T03:56:59.541Z,9.30
2023-02-26T03:59:27.248Z,8.38
2023-02-26T04:02:00.583Z,9.15
2023-02-26T04:04:34.703Z,8.02
2023-02-26T04:07:03.599Z,11.20
2023-02-26T04:09:31.411Z,7.35
2023-02-26T04:12:00.068Z,7.22
2023-02-26T04:14:28.176Z,10.52
2023-02-26T04:16:55.859Z,12.40
2023-02-26T04:19:23.548Z,6.45
2023-02-26T04:21:52.929Z,7.30
2023-02-26T04:24:20.608Z,10.57
2023-02-26T04:26:48.257Z,9.52
2023-02-26T04:29:16.303Z,6.78
2023-02-26T04:31:44.050Z,14.70
2023-02-26T04:34:11.858Z,8.73
2023-02-26T04:36:39.854Z,7.43
2023-02-26T04:39:10.584Z,13.15
2023-02-26T04:41:38.619Z,11.65
2023-02-26T04:44:07.624Z,13.23
2023-02-26T04:46:35.388Z,15.38
2023-02-26T04:49:03.073Z,10.57
2023-02-26T04:51:31.088Z,10.98
2023-02-26T04:53:58.812Z,7.50
2023-02-26T04:56:28.549Z,10.80
2023-02-26T04:58:56.541Z,7.38
2023-02-26T05:01:24.268Z,7.38
2023-02-26T05:03:52.043Z,8.65
2023-02-26T05:06:20.160Z,6.00
2023-02-26T05:08:47.831Z,8.48
2023-02-26T05:11:15.504Z,9.82
2023-02-26T05:13:44.641Z,10.35
2023-02-26T05:16:12.509Z,11.20
2023-02-26T05:18:40.263Z,6.80
2023-02-26T05:21:08.141Z,9.68
2023-02-26T05:23:35.824Z,5.78
2023-02-26T05:26:03.577Z,7.22
2023-02-26T05:28:34.260Z,10.85
2023-02-26T05:31:03.672Z,5.07
2023-02-26T05:33:31.498Z,11.48
2023-02-26T05:35:59.462Z,5.13
2023-02-26T05:38:27.170Z,11.18
2023-02-26T05:40:57.990Z,12.07
2023-02-26T05:43:26.402Z,5.47
2023-02-26T05:45:55.464Z,7.32
2023-02-26T05:48:24.619Z,7.78
2023-02-26T05:50:53.167Z,9.07
2023-02-26T05:53:20.911Z,10.70
2023-02-26T05:55:48.967Z,10.32
2023-02-26T05:58:17.028Z,10.10
2023-02-26T06:00:44.745Z,8.95
2023-02-26T06:03:12.451Z,4.60
2023-02-26T06:05:41.695Z,8.52
2023-02-26T06:08:09.376Z,8.68
2023-02-26T06:10:37.094Z,8.40
2023-02-26T06:13:06.287Z,8.30
2023-02-26T06:15:34.014Z,10.52
2023-02-26T06:18:01.690Z,6.68
2023-02-26T06:20:30.044Z,7.40
2023-02-26T06:22:59.067Z,9.57
2023-02-26T06:25:26.902Z,11.55
2023-02-26T06:27:54.775Z,8.77
2023-02-26T06:30:23.896Z,6.15
2023-02-26T06:32:51.621Z,9.57
2023-02-26T06:35:20.505Z,13.57
2023-02-26T06:37:48.199Z,6.18
2023-02-26T06:40:17.573Z,7.05
2023-02-26T06:42:45.584Z,6.13
2023-02-26T06:45:13.297Z,8.60
2023-02-26T06:47:40.973Z,5.72
2023-02-26T06:50:10.577Z,8.45
2023-02-26T06:52:38.304Z,13.07
2023-02-26T06:55:06.787Z,7.80
2023-02-26T06:57:36.168Z,7.05
2023-02-26T07:00:05.038Z,6.05
2023-02-26T07:02:32.811Z,9.07
2023-02-26T07:05:00.820Z,8.93
2023-02-26T07:07:28.682Z,7.70
2023-02-26T07:09:56.439Z,9.05
2023-02-26T07:12:24.129Z,7.57
2023-02-26T07:14:53.225Z,7.38
2023-02-26T07:17:21.292Z,6.85
2023-02-26T07:19:50.213Z,7.60
2023-02-26T07:22:20.904Z,5.97
2023-02-26T07:24:49.521Z,7.53
2023-02-26T07:27:17.561Z,5.50
2023-02-26T07:29:45.193Z,7.50
2023-02-26T07:32:14.267Z,7.05
2023-02-26T07:34:42.680Z,8.75
2023-02-26T07:37:10.405Z,7.78
2023-02-26T07:39:38.073Z,6.03
2023-02-26T07:42:06.417Z,9.93
2023-02-26T07:44:34.069Z,9.32
2023-02-26T07:47:01.871Z,7.90
2023-02-26T07:49:32.811Z,10.48
2023-02-26T07:52:00.744Z,7.50
2023-02-26T07:54:28.944Z,6.97
2023-02-26T07:56:56.738Z,7.40
2023-02-26T07:59:24.417Z,4.10
2023-02-26T08:01:53.054Z,6.03
2023-02-26T08:04:20.953Z,7.95
2023-02-26T08:06:50.042Z,7.93
2023-02-26T08:09:17.909Z,5.93
2023-02-26T08:11:45.845Z,5.53
2023-02-26T08:14:13.601Z,4.00
2023-02-26T08:16:41.615Z,5.55
2023-02-26T08:19:09.646Z,6.68
2023-02-26T08:21:37.654Z,6.45
2023-02-26T08:24:07.063Z,5.47
2023-02-26T08:26:37.628Z,7.00
2023-02-26T08:29:06.126Z,6.03
2023-02-26T08:31:34.608Z,3.88
2023-02-26T08:34:03.157Z,3.97
2023-02-26T08:36:31.217Z,3.75
2023-02-26T08:38:59.031Z,7.10
2023-02-26T08:41:30.368Z,7.90
2023-02-26T08:43:58.031Z,9.10
2023-02-26T08:46:26.185Z,4.97
2023-02-26T08:48:54.749Z,5.38
2023-02-26T08:51:22.913Z,6.80
2023-02-26T08:53:51.225Z,8.07
2023-02-26T08:56:19.286Z,5.75
2023-02-26T08:58:48.292Z,10.45
2023-02-26T09:01:16.033Z,6.30
2023-02-26T09:03:44.212Z,6.10
2023-02-26T09:06:11.921Z,5.18
2023-02-26T09:08:39.684Z,5.65
2023-02-26T09:11:07.680Z,5.45
2023-02-26T09:13:35.328Z,4.70
2023-02-26T09:16:04.908Z,5.85
2023-02-26T09:18:32.965Z,5.18
2023-02-26T09:21:00.648Z,4.50
2023-02-26T09:23:28.385Z,4.47
2023-02-26T09:25:57.424Z,4.53
2023-02-26T09:28:26.678Z,12.35
2023-02-26T09:30:55.470Z,5.35
2023-02-26T09:33:24.685Z,7.68
2023-02-26T09:35:53.587Z,7.50
2023-02-26T09:38:21.781Z,11.68
2023-02-26T09:40:53.021Z,10.27
2023-02-26T09:43:45.728Z,5.88
2023-02-26T09:46:26.286Z,7.05
2023-02-26T09:49:17.663Z,7.57
2023-02-26T09:51:49.837Z,5.13
2023-02-26T09:54:23.116Z,3.88
2023-02-26T09:56:52.866Z,7.65
2023-02-26T09:59:20.936Z,5.45
2023-02-26T10:01:57.334Z,6.30
2023-02-26T10:04:42.861Z,2.53
2023-02-26T10:07:22.207Z,4.20
2023-02-26T10:10:04.131Z,7.68
2023-02-26T10:12:36.385Z,4.55
2023-02-26T10:15:12.005Z,3.88
2023-02-26T10:17:50.768Z,4.05
2023-02-26T10:20:24.948Z,5.45
2023-02-26T10:22:59.564Z,3.42
2023-02-26T10:25:32.629Z,4.38
2023-02-26T10:28:08.474Z,5.10
2023-02-26T10:30:41.284Z,7.32
2023-02-26T10:33:19.934Z,3.70
2023-02-26T10:35:54.082Z,4.95
2023-02-26T10:38:25.867Z,3.63
2023-02-26T10:40:59.806Z,2.33
2023-02-26T10:43:32.299Z,1.88
2023-02-26T10:46:11.271Z,4.47
2023-02-26T10:48:53.750Z,3.05
2023-02-26T10:51:26.461Z,3.40
2023-02-26T10:53:59.290Z,4.10
2023-02-26T10:56:31.327Z,4.18
2023-02-26T10:58:59.899Z,2.63
2023-02-26T11:01:31.225Z,1.98
2023-02-26T11:04:02.869Z,4.78
2023-02-26T11:06:35.736Z,8.73
2023-02-26T11:09:06.320Z,1.90
2023-02-26T11:11:41.793Z,3.60
2023-02-26T11:14:10.707Z,2.08
2023-02-26T11:16:46.942Z,3.72
2023-02-26T11:19:17.108Z,2.72
2023-02-26T11:21:48.228Z,2.45
2023-02-26T11:24:20.913Z,2.28
2023-02-26T11:26:51.216Z,2.55
2023-02-26T11:29:21.344Z,5.20
2023-02-26T11:31:51.567Z,3.53
2023-02-26T11:34:24.488Z,2.58
2023-02-26T11:36:55.883Z,2.20
2023-02-26T11:39:25.271Z,4.00
2023-02-26T11:41:56.869Z,3.47
2023-02-26T11:44:35.233Z,3.10
2023-02-26T11:47:07.075Z,3.75
2023-02-26T11:49:35.741Z,2.30
2023-02-26T11:52:20.510Z,1.92
2023-02-26T11:55:02.867Z,2.22
2023-02-26T11:57:33.005Z,4.80
2023-02-26T12:00:02.593Z,3.08
2023-02-26T12:02:36.403Z,3.83
2023-02-26T12:05:08.131Z,3.28
2023-02-26T12:07:39.191Z,2.45
2023-02-26T12:10:16.635Z,2.40
2023-02-26T12:12:59.168Z,2.00
2023-02-26T12:15:36.245Z,4.07
2023-02-26T12:18:28.821Z,1.90
2023-02-26T12:21:07.069Z,4.72
2023-02-26T12:23:50.196Z,2.78
2023-02-26T12:26:28.216Z,3.75
2023-02-26T12:29:28.715Z,1.58
2023-02-26T12:32:26.132Z,2.75
2023-02-26T12:35:15.664Z,4.45
2023-02-26T12:37:56.835Z,4.40
2023-02-26T12:40:48.951Z,1.85
2023-02-26T12:43:26.159Z,2.95
2023-02-26T12:46:02.386Z,2.30
2023-02-26T12:49:04.239Z,2.10
2023-02-26T12:51:49.646Z,4.45
2023-02-26T12:54:45.647Z,8.27
2023-02-26T12:57:30.413Z,4.32
2023-02-26T13:00:18.071Z,12.77
2023-02-26T13:03:31.303Z,8.10
2023-02-26T13:06:29.628Z,9.00
2023-02-26T13:09:09.212Z,4.85
2023-02-26T13:14:45.428Z,3.58
2023-02-26T13:17:23.410Z,3.15
2023-02-26T13:19:56.733Z,4.72
2023-02-26T13:22:29.794Z,5.13
2023-02-26T13:25:03.869Z,4.68
2023-02-26T13:27:35.609Z,3.80
2023-02-26T13:30:20.119Z,3.47
2023-02-26T13:32:50.073Z,4.03
2023-02-26T13:35:22.585Z,3.13
2023-02-26T13:37:53.711Z,3.97
2023-02-26T13:40:37.066Z,1.52
2023-02-26T13:43:16.571Z,3.08
2023-02-26T13:45:55.005Z,2.33
2023-02-26T13:48:32.264Z,2.55
2023-02-26T13:51:09.406Z,3.60
2023-02-26T13:53:49.961Z,2.58
2023-02-26T13:56:19.656Z,3.90
2023-02-26T14:01:21.227Z,2.92
2023-02-26T14:03:52.096Z,2.55
2023-02-26T14:06:39.027Z,2.42
2023-02-26T14:09:31.502Z,3.75
2023-02-26T14:12:02.430Z,3.83
2023-02-26T14:14:37.423Z,4.80
2023-02-26T14:17:37.640Z,8.27
2023-02-26T14:20:18.926Z,7.63
2023-02-26T14:22:50.137Z,4.93
2023-02-26T14:25:23.565Z,4.32
2023-02-26T14:27:52.100Z,6.72
2023-02-26T14:33:20.601Z,7.97
2023-02-26T14:35:52.268Z,4.88
2023-02-26T14:38:24.768Z,2.50
2023-02-26T14:40:57.292Z,5.43
2023-02-26T14:43:36.279Z,2.13
2023-02-26T14:46:05.754Z,1.23
2023-02-26T14:48:35.660Z,3.08
2023-02-26T14:51:17.827Z,5.35
2023-02-26T14:54:01.620Z,9.38
2023-02-26T14:56:40.784Z,5.22
2023-02-26T14:59:31.639Z,3.85
2023-02-26T15:02:11.319Z,6.82
2023-02-26T15:05:07.910Z,5.07
2023-02-26T15:07:50.097Z,8.50
2023-02-26T15:10:30.445Z,10.30
2023-02-26T15:13:17.513Z,3.30
2023-02-26T15:15:53.828Z,5.13
2023-02-26T15:19:03.640Z,3.65
2023-02-26T15:21:44.533Z,13.00
2023-02-26T15:24:16.022Z,5.28
2023-02-26T15:26:50.724Z,9.68
2023-02-26T15:29:19.576Z,11.45
2023-02-26T15:31:56.454Z,9.13
2023-02-26T15:34:25.310Z,12.55
2023-02-26T15:36:55.193Z,9.13
2023-02-26T15:39:25.956Z,10.68
2023-02-26T15:41:56.518Z,5.25
2023-02-26T15:44:28.659Z,6.03
2023-02-26T15:46:58.866Z,3.70
2023-02-26T15:49:30.930Z,2.65
2023-02-26T15:52:02.624Z,3.40
2023-02-26T15:54:36.981Z,3.85
2023-02-26T15:57:05.464Z,8.48
2023-02-26T15:59:34.143Z,10.98
2023-02-26T16:04:53.277Z,12.98
2023-02-26T16:07:23.725Z,4.70
2023-02-26T16:09:54.154Z,10.57
2023-02-26T16:12:25.485Z,5.20
2023-02-26T16:14:57.154Z,4.25
2023-02-26T16:17:28.546Z,6.68
2023-02-26T16:19:58.488Z,7.45
2023-02-26T16:22:34.040Z,11.68
2023-02-26T16:25:06.910Z,5.60
2023-02-26T16:27:36.276Z,2.60
2023-02-26T16:30:06.974Z,5.78
2023-02-26T16:32:37.397Z,4.30
2023-02-26T16:35:12.011Z,17.95
2023-02-26T16:37:46.143Z,9.00
2023-02-26T16:40:20.183Z,13.05
2023-02-26T16:42:55.854Z,3.03
2023-02-26T16:45:49.403Z,34.58
2023-02-26T16:48:20.951Z,44.33
2023-02-26T16:50:56.562Z,43.65
2023-02-26T16:53:32.400Z,7.45
2023-02-26T16:56:00.702Z,19.38
2023-02-26T16:58:30.597Z,17.48
2023-02-26T17:01:07.322Z,8.35
2023-02-26T17:03:38.456Z,7.03
2023-02-26T17:06:11.210Z,6.70
2023-02-26T17:08:50.448Z,6.13
2023-02-26T17:11:24.993Z,4.13
2023-02-26T17:14:05.589Z,9.27
2023-02-26T17:16:33.868Z,11.45
2023-02-26T17:19:02.619Z,6.20
2023-02-26T17:21:31.017Z,17.58
2023-02-26T17:24:00.592Z,4.60
2023-02-26T17:26:28.343Z,3.78
2023-02-26T17:28:56.028Z,6.80
2023-02-26T17:31:23.718Z,6.60
2023-02-26T17:33:52.315Z,24.42
2023-02-26T17:36:21.272Z,9.32
2023-02-26T17:38:50.446Z,26.77
2023-02-26T17:41:20.224Z,15.20
2023-02-26T17:43:47.939Z,15.00
2023-02-26T17:46:15.682Z,36.45
2023-02-26T17:48:43.423Z,13.73
2023-02-26T17:51:13.802Z,26.05
2023-02-26T17:53:44.439Z,10.30
2023-02-26T17:56:16.920Z,7.03
2023-02-26T17:58:47.118Z,6.72
2023-02-26T18:01:14.821Z,6.57
2023-02-26T18:03:43.330Z,3.20
2023-02-26T18:06:14.003Z,5.20
2023-02-26T18:08:42.063Z,4.50
2023-02-26T18:11:13.624Z,7.05
2023-02-26T18:13:41.752Z,5.03
2023-02-26T18:16:18.028Z,5.75
2023-02-26T18:18:46.662Z,6.60
2023-02-26T18:21:15.089Z,8.15
2023-02-26T18:23:42.770Z,8.70
2023-02-26T18:26:11.955Z,5.38
2023-02-26T18:28:39.744Z,5.18
2023-02-26T18:31:09.243Z,7.35
2023-02-26T18:36:12.735Z,13.75
2023-02-26T18:38:41.813Z,8.68
2023-02-26T18:41:09.472Z,9.25
2023-02-26T18:43:37.105Z,10.85
2023-02-26T18:46:05.594Z,9.65
2023-02-26T18:48:33.268Z,9.82
2023-02-26T18:51:02.306Z,9.48
2023-02-26T18:53:30.161Z,35.92
2023-02-26T18:55:58.151Z,52.03
2023-02-26T18:58:26.049Z,68.63
2023-02-26T19:00:53.912Z,26.80
2023-02-26T19:03:21.543Z,19.98
2023-02-26T19:05:57.210Z,28.80
2023-02-26T19:08:26.458Z,18.00
2023-02-26T19:10:54.902Z,17.10
2023-02-26T19:13:24.038Z,26.77
2023-02-26T19:15:51.935Z,13.45
2023-02-26T19:18:20.550Z,13.40
2023-02-26T19:20:48.611Z,10.20
2023-02-26T19:23:16.356Z,9.10
2023-02-26T19:25:45.398Z,8.57
2023-02-26T19:28:13.233Z,8.57
2023-02-26T19:30:40.904Z,11.68
2023-02-26T19:33:08.912Z,10.35
2023-02-26T19:35:37.298Z,8.82
2023-02-26T19:38:04.962Z,9.25
2023-02-26T19:40:32.695Z,9.30
2023-02-26T19:43:03.376Z,8.25
2023-02-26T19:45:31.680Z,10.15
2023-02-26T19:47:59.354Z,8.55
2023-02-26T19:50:27.572Z,10.88
2023-02-26T19:52:56.152Z,11.02
2023-02-26T19:55:23.840Z,9.13
2023-02-26T19:57:51.685Z,9.88
2023-02-26T20:00:21.463Z,9.55
2023-02-26T20:05:18.333Z,9.27
2023-02-26T20:07:48.094Z,8.80
2023-02-26T20:10:16.655Z,8.13
2023-02-26T20:12:45.083Z,8.85
2023-02-26T20:15:13.616Z,9.85
2023-02-26T20:17:42.665Z,9.93
2023-02-26T20:20:12.034Z,9.40
2023-02-26T20:22:39.687Z,10.73
2023-02-26T20:25:07.814Z,7.47
2023-02-26T20:27:36.716Z,9.23
2023-02-26T20:30:04.907Z,8.73
2023-02-26T20:32:33.003Z,8.07
2023-02-26T20:35:02.535Z,7.22
2023-02-26T20:37:30.211Z,6.80
2023-02-26T20:39:57.932Z,7.72
2023-02-26T20:42:26.120Z,6.93
2023-02-26T20:44:53.781Z,8.65
2023-02-26T20:47:21.616Z,7.97
2023-02-26T20:49:50.003Z,9.05
2023-02-26T20:52:19.069Z,10.85
2023-02-26T20:54:46.709Z,9.13
2023-02-26T20:57:16.328Z,9.50
2023-02-26T20:59:43.969Z,8.02
2023-02-26T21:02:13.701Z,7.35
2023-02-26T21:07:21.708Z,7.57
2023-02-26T21:09:52.599Z,6.43
2023-02-26T21:12:20.596Z,9.07
2023-02-26T21:14:51.200Z,9.82
2023-02-26T21:17:19.554Z,6.72
2023-02-26T21:19:47.444Z,7.30
2023-02-26T21:22:15.226Z,6.75
2023-02-26T21:24:43.077Z,7.95
2023-02-26T21:27:12.266Z,6.30
2023-02-26T21:29:40.393Z,6.22
2023-02-26T21:32:08.346Z,11.90
2023-02-26T21:34:36.306Z,7.63
2023-02-26T21:37:06.469Z,11.35
2023-02-26T21:39:35.115Z,9.15
2023-02-26T21:42:04.351Z,8.60
2023-02-26T21:44:35.505Z,5.68
2023-02-26T21:47:03.961Z,6.45
2023-02-26T21:49:32.511Z,8.02
2023-02-26T21:52:02.152Z,6.22
2023-02-26T21:54:30.308Z,7.20
2023-02-26T21:56:58.171Z,5.82
2023-02-26T21:59:26.131Z,8.73
2023-02-26T22:01:55.212Z,13.10
2023-02-26T22:04:22.996Z,7.63
2023-02-26T22:06:50.886Z,7.68
2023-02-26T22:09:19.105Z,8.77
2023-02-26T22:11:47.395Z,4.15
2023-02-26T22:14:15.397Z,8.13
2023-02-26T22:16:43.143Z,6.50
2023-02-26T22:19:12.381Z,10.65
2023-02-26T22:21:40.675Z,5.70
2023-02-26T22:24:09.088Z,5.80
2023-02-26T22:26:36.804Z,6.80
2023-02-26T22:29:05.291Z,7.93
2023-02-26T22:31:33.969Z,7.50
2023-02-26T22:34:01.916Z,5.78
2023-02-26T22:36:31.828Z,5.03
2023-02-26T22:38:59.514Z,8.77
2023-02-26T22:41:27.268Z,5.15
2023-02-26T22:43:56.172Z,8.82
2023-02-26T22:46:24.454Z,8.77
2023-02-26T22:48:52.669Z,7.40
2023-02-26T22:51:20.880Z,7.28
2023-02-26T22:53:49.980Z,6.07
2023-02-26T22:56:17.662Z,10.20
2023-02-26T22:58:45.509Z,6.03
2023-02-26T23:01:13.361Z,6.05
2023-02-26T23:03:41.080Z,7.75
2023-02-26T23:06:09.697Z,8.45
2023-02-26T23:08:37.455Z,5.90
2023-02-26T23:11:07.450Z,10.63
2023-02-26T23:13:37.187Z,7.10
2023-02-26T23:18:34.131Z,6.47
2023-02-26T23:21:02.387Z,6.38
2023-02-26T23:23:30.077Z,7.32
2023-02-26T23:25:57.754Z,5.72
2023-02-26T23:28:28.586Z,9.80
2023-02-26T23:30:56.289Z,8.77
2023-02-26T23:33:24.087Z,5.85
2023-02-26T23:35:53.577Z,9.73
2023-02-26T23:38:21.302Z,6.03
2023-02-26T23:40:49.380Z,8.55
2023-02-26T23:43:18.203Z,6.18
2023-02-26T23:45:47.242Z,5.77
2023-02-26T23:48:14.937Z,5.65
2023-02-26T23:50:43.081Z,8.27
2023-02-26T23:53:10.780Z,5.13
2023-02-26T23:55:38.456Z,7.43
2023-02-26T23:58:06.570Z,4.85
